createdAt,value
2019-03-12T00:00:07.466Z,4.35
2019-03-12T00:01:07.437Z,4.35
2019-03-12T00:02:07.425Z,4.36
2019-03-12T00:03:07.414Z,4.38
2019-03-12T00:04:07.404Z,4.43
2019-03-12T00:05:07.402Z,4.43
2019-03-12T00:06:07.380Z,4.42
2019-03-12T00:07:07.371Z,4.34
2019-03-12T00:08:07.362Z,4.43
2019-03-12T00:09:07.351Z,4.38
2019-03-12T00:10:07.358Z,4.42
2019-03-12T00:11:07.332Z,4.46
2019-03-12T00:12:07.317Z,4.47
2019-03-12T00:13:07.307Z,4.49
2019-03-12T00:14:07.296Z,4.44
2019-03-12T00:15:07.300Z,4.47
2019-03-12T00:16:07.273Z,4.51
2019-03-12T00:17:07.264Z,4.49
2019-03-12T00:18:07.255Z,4.50
2019-03-12T00:19:07.241Z,4.38
2019-03-12T00:20:07.241Z,4.47
2019-03-12T00:21:07.221Z,4.42
2019-03-12T00:22:07.217Z,4.43
2019-03-12T00:23:07.201Z,4.35
2019-03-12T00:24:07.187Z,4.42
2019-03-12T00:25:07.185Z,4.42
2019-03-12T00:26:07.167Z,4.46
2019-03-12T00:27:07.156Z,4.36
2019-03-12T00:28:07.153Z,4.34
2019-03-12T00:29:07.136Z,4.35
2019-03-12T00:30:07.135Z,4.32
2019-03-12T00:31:07.114Z,4.28
2019-03-12T00:32:07.205Z,4.32
2019-03-12T00:33:07.095Z,4.31
2019-03-12T00:34:07.080Z,4.35
2019-03-12T00:35:07.086Z,4.35
2019-03-12T00:36:07.059Z,4.39
2019-03-12T00:37:07.053Z,4.35
2019-03-12T00:38:07.037Z,4.34
2019-03-12T00:39:07.029Z,4.25
2019-03-12T00:40:07.023Z,4.34
2019-03-12T00:41:07.003Z,4.32
2019-03-12T00:42:06.993Z,4.34
2019-03-12T00:43:06.985Z,4.34
2019-03-12T00:44:06.972Z,4.32
2019-03-12T00:45:06.976Z,4.34
2019-03-12T00:46:06.949Z,4.34
2019-03-12T00:47:06.945Z,4.31
2019-03-12T00:48:06.928Z,4.42
2019-03-12T00:49:06.917Z,4.36
2019-03-12T00:50:06.941Z,4.32
2019-03-12T00:51:06.898Z,4.35
2019-03-12T00:52:06.890Z,4.46
2019-03-12T00:53:06.879Z,4.39
2019-03-12T00:54:06.866Z,4.39
2019-03-12T00:55:06.852Z,4.46
2019-03-12T00:56:06.854Z,4.42
2019-03-12T00:57:06.846Z,4.38
2019-03-12T00:58:06.820Z,4.47
2019-03-12T00:59:06.808Z,4.38
2019-03-12T01:00:06.800Z,4.35
2019-03-12T01:01:06.807Z,4.34
2019-03-12T01:02:06.782Z,4.38
2019-03-12T01:03:06.767Z,4.38
2019-03-12T01:04:06.757Z,4.38
2019-03-12T01:05:06.744Z,4.38
2019-03-12T01:06:06.744Z,4.46
2019-03-12T01:07:06.726Z,4.36
2019-03-12T01:08:06.716Z,4.38
2019-03-12T01:09:06.702Z,4.42
2019-03-12T01:10:06.691Z,4.42
2019-03-12T01:11:06.697Z,4.46
2019-03-12T01:12:06.684Z,4.47
2019-03-12T01:13:06.660Z,4.47
2019-03-12T01:14:06.655Z,4.44
2019-03-12T01:15:06.637Z,4.49
2019-03-12T01:16:06.633Z,4.49
2019-03-12T01:17:06.615Z,4.44
2019-03-12T01:18:06.605Z,4.50
2019-03-12T01:19:06.597Z,4.42
2019-03-12T01:20:06.599Z,4.49
2019-03-12T01:21:06.582Z,4.46
2019-03-12T01:22:06.564Z,4.43
2019-03-12T01:23:06.552Z,4.47
2019-03-12T01:24:06.544Z,4.49
2019-03-12T01:25:06.530Z,4.50
2019-03-12T01:26:06.532Z,4.49
2019-03-12T01:27:06.507Z,4.47
2019-03-12T01:28:06.496Z,4.43
2019-03-12T01:29:06.568Z,4.49
2019-03-12T01:30:06.476Z,4.44
2019-03-12T01:31:06.479Z,4.49
2019-03-12T01:32:06.452Z,4.46
2019-03-12T01:33:06.441Z,4.43
2019-03-12T01:34:06.431Z,4.44
2019-03-12T01:35:06.426Z,4.47
2019-03-12T01:36:06.416Z,4.47
2019-03-12T01:37:06.412Z,4.47
2019-03-12T01:38:06.390Z,4.46
2019-03-12T01:39:06.380Z,4.47
2019-03-12T01:40:06.365Z,4.43
2019-03-12T01:41:06.376Z,4.43
2019-03-12T01:42:06.344Z,4.44
2019-03-12T01:43:06.334Z,4.46
2019-03-12T01:44:06.321Z,4.49
2019-03-12T01:45:06.316Z,4.49
2019-03-12T01:46:06.320Z,4.49
2019-03-12T01:47:06.288Z,4.49
2019-03-12T01:48:06.291Z,4.44
2019-03-12T01:49:07.156Z,4.47
2019-03-12T01:50:06.280Z,4.42
2019-03-12T01:51:06.261Z,4.46
2019-03-12T01:52:06.237Z,4.46
2019-03-12T01:53:06.266Z,4.46
2019-03-12T01:54:06.213Z,4.44
2019-03-12T01:55:06.205Z,4.50
2019-03-12T01:56:06.200Z,4.64
2019-03-12T01:57:06.190Z,4.57
2019-03-12T01:58:06.178Z,4.61
2019-03-12T01:59:06.159Z,4.56
2019-03-12T02:00:06.148Z,4.57
2019-03-12T02:01:06.148Z,4.49
2019-03-12T02:02:06.126Z,4.51
2019-03-12T02:03:06.116Z,4.49
2019-03-12T02:04:06.111Z,4.46
2019-03-12T02:05:06.121Z,4.59
2019-03-12T02:06:06.091Z,4.44
2019-03-12T02:07:06.072Z,4.47
2019-03-12T02:08:06.064Z,4.57
2019-03-12T02:09:06.054Z,4.59
2019-03-12T02:10:06.042Z,4.57
2019-03-12T02:11:06.043Z,4.62
2019-03-12T02:12:06.018Z,4.59
2019-03-12T02:13:06.007Z,4.44
2019-03-12T02:14:05.999Z,4.43
2019-03-12T02:15:05.994Z,4.57
2019-03-12T02:16:05.975Z,4.61
2019-03-12T02:17:05.981Z,4.53
2019-03-12T02:18:05.955Z,4.57
2019-03-12T02:19:05.943Z,4.54
2019-03-12T02:20:05.935Z,4.57
2019-03-12T02:21:05.923Z,4.59
2019-03-12T02:22:05.928Z,4.62
2019-03-12T02:23:05.901Z,4.64
2019-03-12T02:24:05.898Z,4.53
2019-03-12T02:25:05.878Z,4.56
2019-03-12T02:26:05.870Z,4.59
2019-03-12T02:27:05.865Z,4.61
2019-03-12T02:28:05.861Z,4.56
2019-03-12T02:29:05.836Z,4.59
2019-03-12T02:30:05.889Z,4.59
2019-03-12T02:31:05.820Z,4.61
2019-03-12T02:32:05.821Z,4.57
2019-03-12T02:33:05.803Z,4.61
2019-03-12T02:34:05.795Z,4.56
2019-03-12T02:35:05.856Z,4.62
2019-03-12T02:36:05.761Z,4.61
2019-03-12T02:37:05.760Z,4.56
2019-03-12T02:38:05.758Z,4.62
2019-03-12T02:39:05.738Z,4.56
2019-03-12T02:40:05.719Z,4.56
2019-03-12T02:41:05.709Z,4.61
2019-03-12T02:42:05.707Z,4.61
2019-03-12T02:43:05.694Z,4.56
2019-03-12T02:44:05.731Z,4.64
2019-03-12T02:45:05.705Z,4.61
2019-03-12T02:46:05.651Z,4.64
2019-03-12T02:47:15.231Z,4.61
2019-03-12T02:48:05.635Z,4.64
2019-03-12T02:49:09.137Z,4.65
2019-03-12T02:50:05.610Z,4.67
2019-03-12T02:51:05.601Z,4.67
2019-03-12T02:52:05.597Z,4.75
2019-03-12T02:53:05.576Z,4.74
2019-03-12T02:54:05.563Z,4.71
2019-03-12T02:55:05.553Z,4.75
2019-03-12T02:56:05.544Z,4.75
2019-03-12T02:57:05.544Z,4.83
2019-03-12T02:58:05.521Z,4.69
2019-03-12T02:59:05.532Z,4.71
2019-03-12T03:00:05.497Z,4.83
2019-03-12T03:01:05.488Z,4.77
2019-03-12T03:02:05.489Z,4.65
2019-03-12T03:03:05.467Z,4.71
2019-03-12T03:04:05.456Z,4.71
2019-03-12T03:05:05.453Z,4.79
2019-03-12T03:06:05.437Z,4.71
2019-03-12T03:07:05.432Z,4.69
2019-03-12T03:08:05.415Z,4.71
2019-03-12T03:09:05.407Z,4.68
2019-03-12T03:10:05.395Z,4.68
2019-03-12T03:11:05.398Z,4.79
2019-03-12T03:12:05.418Z,4.71
2019-03-12T03:13:05.359Z,4.87
2019-03-12T03:14:05.345Z,4.68
2019-03-12T03:15:05.342Z,4.83
2019-03-12T03:16:05.328Z,4.75
2019-03-12T03:17:05.312Z,4.75
2019-03-12T03:18:05.318Z,4.71
2019-03-12T03:19:05.293Z,4.74
2019-03-12T03:20:05.285Z,4.77
2019-03-12T03:21:05.276Z,4.77
2019-03-12T03:22:05.259Z,4.77
2019-03-12T03:23:05.261Z,4.75
2019-03-12T03:24:05.237Z,4.79
2019-03-12T03:25:05.230Z,4.71
2019-03-12T03:26:05.288Z,4.72
2019-03-12T03:27:05.216Z,4.79
2019-03-12T03:28:05.209Z,4.84
2019-03-12T03:29:05.190Z,4.79
2019-03-12T03:30:05.176Z,4.84
2019-03-12T03:31:05.164Z,4.74
2019-03-12T03:32:05.159Z,4.74
2019-03-12T03:33:05.206Z,4.84
2019-03-12T03:34:05.151Z,4.75
2019-03-12T03:35:05.118Z,4.79
2019-03-12T03:36:05.107Z,4.79
2019-03-12T03:37:05.096Z,4.74
2019-03-12T03:38:05.174Z,4.75
2019-03-12T03:39:05.090Z,4.80
2019-03-12T03:40:05.065Z,4.79
2019-03-12T03:41:05.057Z,4.80
2019-03-12T03:42:05.053Z,4.79
2019-03-12T03:43:05.048Z,4.80
2019-03-12T03:44:05.021Z,4.86
2019-03-12T03:45:05.018Z,4.84
2019-03-12T03:46:05.000Z,4.87
2019-03-12T03:47:04.991Z,4.91
2019-03-12T03:48:05.135Z,4.91
2019-03-12T03:49:04.967Z,4.83
2019-03-12T03:50:04.958Z,4.86
2019-03-12T03:51:04.945Z,4.93
2019-03-12T03:52:04.937Z,4.88
2019-03-12T03:53:04.935Z,4.86
2019-03-12T03:54:04.919Z,4.86
2019-03-12T03:55:04.901Z,4.91
2019-03-12T03:56:04.890Z,4.94
2019-03-12T03:57:04.882Z,4.93
2019-03-12T03:58:04.880Z,4.91
2019-03-12T03:59:04.857Z,4.86
2019-03-12T04:00:04.852Z,4.88
2019-03-12T04:01:04.842Z,4.86
2019-03-12T04:02:04.827Z,4.90
2019-03-12T04:03:04.839Z,4.87
2019-03-12T04:04:04.807Z,4.86
2019-03-12T04:05:04.815Z,4.87
2019-03-12T04:06:04.787Z,4.93
2019-03-12T04:07:04.774Z,4.87
2019-03-12T04:08:04.776Z,4.90
2019-03-12T04:09:04.863Z,4.91
2019-03-12T04:10:04.766Z,4.87
2019-03-12T04:11:04.732Z,4.93
2019-03-12T04:12:04.719Z,4.90
2019-03-12T04:13:04.725Z,4.88
2019-03-12T04:14:04.702Z,4.86
2019-03-12T04:15:04.686Z,4.88
2019-03-12T04:16:04.696Z,4.91
2019-03-12T04:17:04.665Z,4.91
2019-03-12T04:18:04.676Z,4.93
2019-03-12T04:19:04.658Z,4.88
2019-03-12T04:20:04.639Z,4.87
2019-03-12T04:21:04.754Z,4.88
2019-03-12T04:22:04.619Z,4.91
2019-03-12T04:23:04.613Z,4.86
2019-03-12T04:24:04.593Z,4.86
2019-03-12T04:25:04.582Z,4.84
2019-03-12T04:26:04.569Z,4.93
2019-03-12T04:27:04.558Z,4.94
2019-03-12T04:28:04.588Z,4.96
2019-03-12T04:29:04.536Z,4.84
2019-03-12T04:30:04.523Z,4.90
2019-03-12T04:31:04.524Z,4.86
2019-03-12T04:32:04.504Z,4.86
2019-03-12T04:33:04.525Z,4.90
2019-03-12T04:34:04.482Z,4.93
2019-03-12T04:35:04.470Z,4.88
2019-03-12T04:36:04.464Z,4.84
2019-03-12T04:37:04.458Z,4.87
2019-03-12T04:38:06.920Z,4.96
2019-03-12T04:39:04.433Z,4.87
2019-03-12T04:40:04.418Z,4.84
2019-03-12T04:41:04.412Z,4.86
2019-03-12T04:42:04.395Z,4.88
2019-03-12T04:43:04.382Z,4.88
2019-03-12T04:44:04.383Z,4.86
2019-03-12T04:45:04.364Z,4.87
2019-03-12T04:46:04.430Z,4.93
2019-03-12T04:47:04.339Z,4.88
2019-03-12T04:48:04.388Z,4.90
2019-03-12T04:49:04.330Z,4.88
2019-03-12T04:50:04.304Z,4.93
2019-03-12T04:51:04.297Z,4.88
2019-03-12T04:52:04.288Z,4.91
2019-03-12T04:53:04.274Z,4.90
2019-03-12T04:54:04.274Z,4.84
2019-03-12T04:55:04.254Z,4.88
2019-03-12T04:56:04.244Z,4.94
2019-03-12T04:57:04.236Z,4.88
2019-03-12T04:58:04.227Z,4.88
2019-03-12T04:59:04.218Z,4.86
2019-03-12T05:00:04.206Z,4.88
2019-03-12T05:01:04.192Z,4.91
2019-03-12T05:02:04.180Z,4.91
2019-03-12T05:03:04.167Z,4.90
2019-03-12T05:04:04.164Z,4.91
2019-03-12T05:05:04.185Z,4.80
2019-03-12T05:06:04.141Z,4.86
2019-03-12T05:07:04.137Z,4.91
2019-03-12T05:08:04.115Z,4.90
2019-03-12T05:09:04.137Z,4.87
2019-03-12T05:10:04.092Z,4.84
2019-03-12T05:11:04.134Z,4.87
2019-03-12T05:12:04.067Z,4.91
2019-03-12T05:13:04.058Z,4.79
2019-03-12T05:14:04.050Z,4.88
2019-03-12T05:15:04.060Z,4.77
2019-03-12T05:16:04.026Z,4.91
2019-03-12T05:17:04.701Z,4.86
2019-03-12T05:18:04.006Z,4.93
2019-03-12T05:19:03.999Z,4.83
2019-03-12T05:20:03.995Z,4.87
2019-03-12T05:21:03.970Z,4.79
2019-03-12T05:22:03.961Z,4.90
2019-03-12T05:23:03.948Z,4.75
2019-03-12T05:24:03.943Z,4.84
2019-03-12T05:25:03.947Z,4.77
2019-03-12T05:26:03.916Z,4.88
2019-03-12T05:27:03.905Z,4.86
2019-03-12T05:28:03.896Z,4.80
2019-03-12T05:29:03.884Z,4.77
2019-03-12T05:30:03.883Z,4.83
2019-03-12T05:31:03.864Z,4.74
2019-03-12T05:32:03.856Z,4.84
2019-03-12T05:33:03.859Z,4.79
2019-03-12T05:34:03.836Z,4.77
2019-03-12T05:35:03.831Z,4.75
2019-03-12T05:36:03.823Z,4.75
2019-03-12T05:37:03.799Z,4.83
2019-03-12T05:38:03.791Z,4.71
2019-03-12T05:39:03.779Z,4.79
2019-03-12T05:40:03.777Z,4.69
2019-03-12T05:41:03.756Z,4.69
2019-03-12T05:42:03.750Z,4.77
2019-03-12T05:43:03.741Z,4.79
2019-03-12T05:44:03.739Z,4.69
2019-03-12T05:45:03.752Z,4.69
2019-03-12T05:46:03.701Z,4.71
2019-03-12T05:47:03.716Z,4.77
2019-03-12T05:48:03.691Z,4.74
2019-03-12T05:49:03.672Z,4.80
2019-03-12T05:50:03.664Z,4.79
2019-03-12T05:51:03.658Z,4.75
2019-03-12T05:52:03.645Z,4.72
2019-03-12T05:53:03.633Z,4.71
2019-03-12T05:54:03.630Z,4.69
2019-03-12T05:55:03.611Z,4.77
2019-03-12T05:56:03.622Z,4.69
2019-03-12T05:57:03.600Z,4.71
2019-03-12T05:58:03.579Z,4.80
2019-03-12T05:59:03.567Z,4.69
2019-03-12T06:00:03.562Z,4.80
2019-03-12T06:01:03.568Z,4.68
2019-03-12T06:02:03.614Z,4.72
2019-03-12T06:03:03.546Z,4.67
2019-03-12T06:04:03.514Z,4.75
2019-03-12T06:05:03.513Z,4.79
2019-03-12T06:06:03.497Z,4.74
2019-03-12T06:07:03.507Z,4.79
2019-03-12T06:08:03.475Z,4.71
2019-03-12T06:09:03.481Z,4.71
2019-03-12T06:10:03.451Z,4.79
2019-03-12T06:11:03.455Z,4.71
2019-03-12T06:12:03.429Z,4.84
2019-03-12T06:13:03.419Z,4.75
2019-03-12T06:14:03.404Z,4.77
2019-03-12T06:15:03.391Z,4.83
2019-03-12T06:16:03.406Z,4.83
2019-03-12T06:17:03.374Z,4.84
2019-03-12T06:18:03.365Z,4.74
2019-03-12T06:19:03.357Z,4.79
2019-03-12T06:20:03.345Z,4.80
2019-03-12T06:21:03.395Z,4.75
2019-03-12T06:22:03.321Z,4.83
2019-03-12T06:23:03.373Z,4.75
2019-03-12T06:24:03.295Z,4.87
2019-03-12T06:25:03.291Z,4.79
2019-03-12T06:26:03.282Z,4.86
2019-03-12T06:27:03.266Z,4.88
2019-03-12T06:28:03.253Z,4.88
2019-03-12T06:29:03.249Z,4.88
2019-03-12T06:30:03.230Z,4.86
2019-03-12T06:31:03.229Z,4.93
2019-03-12T06:32:03.210Z,4.87
2019-03-12T06:33:03.206Z,4.88
2019-03-12T06:34:03.199Z,4.91
2019-03-12T06:35:03.178Z,4.91
2019-03-12T06:36:03.174Z,4.91
2019-03-12T06:37:03.232Z,4.91
2019-03-12T06:38:03.145Z,4.86
2019-03-12T06:39:03.188Z,4.88
2019-03-12T06:40:03.132Z,4.96
2019-03-12T06:41:03.124Z,4.88
2019-03-12T06:42:03.111Z,4.99
2019-03-12T06:43:03.123Z,5.04
2019-03-12T06:44:03.089Z,5.11
2019-03-12T06:45:03.079Z,5.20
2019-03-12T06:46:03.066Z,5.14
2019-03-12T06:47:03.047Z,5.15
2019-03-12T06:48:03.034Z,5.14
2019-03-12T06:49:03.025Z,5.14
2019-03-12T06:50:12.222Z,5.14
2019-03-12T06:51:03.014Z,5.12
2019-03-12T06:52:02.988Z,5.15
2019-03-12T06:53:03.727Z,5.09
2019-03-12T06:54:02.966Z,5.09
2019-03-12T06:55:02.952Z,5.06
2019-03-12T06:56:02.950Z,5.04
2019-03-12T06:57:02.934Z,5.01
2019-03-12T06:58:02.921Z,5.02
2019-03-12T06:59:10.754Z,4.96
2019-03-12T07:00:02.903Z,4.93
2019-03-12T07:01:02.896Z,5.05
2019-03-12T07:02:02.879Z,5.06
2019-03-12T07:03:02.866Z,5.05
2019-03-12T07:04:02.857Z,5.01
2019-03-12T07:05:02.845Z,5.02
2019-03-12T07:06:02.848Z,4.99
2019-03-12T07:07:06.995Z,4.94
2019-03-12T07:08:06.263Z,5.05
2019-03-12T07:09:02.807Z,5.09
2019-03-12T07:10:02.795Z,5.02
2019-03-12T07:11:02.793Z,4.99
2019-03-12T07:12:02.778Z,5.02
2019-03-12T07:13:02.758Z,5.14
2019-03-12T07:14:02.752Z,5.01
2019-03-12T07:15:02.739Z,5.02
2019-03-12T07:16:03.760Z,5.06
2019-03-12T07:17:02.723Z,5.11
2019-03-12T07:18:02.703Z,5.20
2019-03-12T07:19:02.693Z,5.15
2019-03-12T07:20:02.766Z,5.22
2019-03-12T07:21:02.865Z,5.19
2019-03-12T07:22:02.665Z,5.22
2019-03-12T07:23:02.648Z,5.24
2019-03-12T07:24:02.646Z,5.30
2019-03-12T07:25:02.626Z,5.29
2019-03-12T07:26:02.622Z,5.26
2019-03-12T07:27:02.619Z,5.27
2019-03-12T07:28:02.595Z,5.33
2019-03-12T07:29:02.585Z,5.35
2019-03-12T07:30:02.573Z,5.44
2019-03-12T07:31:02.599Z,5.44
2019-03-12T07:32:02.564Z,5.42
2019-03-12T07:33:02.573Z,5.47
2019-03-12T07:34:02.542Z,5.38
2019-03-12T07:35:02.531Z,5.40
2019-03-12T07:36:02.511Z,5.58
2019-03-12T07:37:02.512Z,5.88
2019-03-12T07:38:02.487Z,5.88
2019-03-12T07:39:02.475Z,5.83
2019-03-12T07:40:02.464Z,5.80
2019-03-12T07:41:02.457Z,5.69
2019-03-12T07:42:02.458Z,5.73
2019-03-12T07:43:02.438Z,5.73
2019-03-12T07:44:02.426Z,5.81
2019-03-12T07:45:02.419Z,5.75
2019-03-12T07:46:02.470Z,5.70
2019-03-12T07:47:02.406Z,5.78
2019-03-12T07:48:02.377Z,5.74
2019-03-12T07:49:02.407Z,5.88
2019-03-12T07:50:02.358Z,5.90
2019-03-12T07:51:02.355Z,5.90
2019-03-12T07:52:02.369Z,5.98
2019-03-12T07:53:02.336Z,5.95
2019-03-12T07:54:02.345Z,5.88
2019-03-12T07:55:02.309Z,5.90
2019-03-12T07:56:02.300Z,5.78
2019-03-12T07:57:02.318Z,5.83
2019-03-12T07:58:02.269Z,5.95
2019-03-12T07:59:02.263Z,5.87
2019-03-12T08:00:02.252Z,5.85
2019-03-12T08:01:02.237Z,5.87
2019-03-12T08:02:02.262Z,5.88
2019-03-12T08:03:02.215Z,5.88
2019-03-12T08:04:02.207Z,5.85
2019-03-12T08:05:02.198Z,5.87
2019-03-12T08:06:02.182Z,5.80
2019-03-12T08:07:02.172Z,5.87
2019-03-12T08:08:02.174Z,5.87
2019-03-12T08:09:02.151Z,5.84
2019-03-12T08:10:02.149Z,5.85
2019-03-12T08:11:02.128Z,5.84
2019-03-12T08:12:02.124Z,5.90
2019-03-12T08:13:02.121Z,5.85
2019-03-12T08:14:02.099Z,5.95
2019-03-12T08:15:02.089Z,5.93
2019-03-12T08:16:02.076Z,5.96
2019-03-12T08:17:02.081Z,6.02
2019-03-12T08:18:02.062Z,6.05
2019-03-12T08:19:02.061Z,6.13
2019-03-12T08:20:02.062Z,6.08
2019-03-12T08:21:02.022Z,6.16
2019-03-12T08:22:02.119Z,6.13
2019-03-12T08:23:02.014Z,6.19
2019-03-12T08:24:01.997Z,6.24
2019-03-12T08:25:01.982Z,6.16
2019-03-12T08:26:01.975Z,6.14
2019-03-12T08:27:01.961Z,6.14
2019-03-12T08:28:01.957Z,6.08
2019-03-12T08:29:01.946Z,6.08
2019-03-12T08:30:01.933Z,6.14
2019-03-12T08:31:01.924Z,6.13
2019-03-12T08:32:01.903Z,6.05
2019-03-12T08:33:01.902Z,6.03
2019-03-12T08:34:01.883Z,6.11
2019-03-12T08:35:01.871Z,6.11
2019-03-12T08:36:01.865Z,6.06
2019-03-12T08:37:01.851Z,6.11
2019-03-12T08:38:01.845Z,6.03
2019-03-12T08:39:01.823Z,6.10
2019-03-12T08:40:01.820Z,6.13
2019-03-12T08:41:01.803Z,6.16
2019-03-12T08:42:01.839Z,6.11
2019-03-12T08:43:01.816Z,6.19
2019-03-12T08:44:01.781Z,6.24
2019-03-12T08:45:01.784Z,6.21
2019-03-12T08:46:01.748Z,6.25
2019-03-12T08:47:01.757Z,6.21
2019-03-12T08:48:01.761Z,6.30
2019-03-12T08:49:01.741Z,6.21
2019-03-12T08:50:01.780Z,6.25
2019-03-12T08:51:04.914Z,6.32
2019-03-12T08:52:01.684Z,6.32
2019-03-12T08:53:01.685Z,6.38
2019-03-12T08:54:01.690Z,6.38
2019-03-12T08:55:03.904Z,6.50
2019-03-12T08:56:01.637Z,6.58
2019-03-12T08:57:01.634Z,6.71
2019-03-12T08:58:01.632Z,6.76
2019-03-12T08:59:01.634Z,6.97
2019-03-12T09:00:01.607Z,7.34
2019-03-12T09:01:01.585Z,7.37
2019-03-12T09:02:02.647Z,7.45
2019-03-12T09:03:01.597Z,7.42
2019-03-12T09:04:01.565Z,7.34
2019-03-12T09:05:01.557Z,7.26
2019-03-12T09:06:01.548Z,7.33
2019-03-12T09:07:01.518Z,7.37
2019-03-12T09:08:01.527Z,7.41
2019-03-12T09:09:01.510Z,7.39
2019-03-12T09:10:01.489Z,7.42
2019-03-12T09:11:01.490Z,7.36
2019-03-12T09:12:01.485Z,7.32
2019-03-12T09:13:01.453Z,7.34
2019-03-12T09:14:01.455Z,7.33
2019-03-12T09:15:01.435Z,7.30
2019-03-12T09:16:01.428Z,7.30
2019-03-12T09:17:01.409Z,7.32
2019-03-12T09:18:01.398Z,7.30
2019-03-12T09:19:01.457Z,7.33
2019-03-12T09:20:01.390Z,7.33
2019-03-12T09:21:01.369Z,7.27
2019-03-12T09:22:01.369Z,7.32
2019-03-12T09:23:01.424Z,7.29
2019-03-12T09:24:01.354Z,7.32
2019-03-12T09:25:01.346Z,7.33
2019-03-12T09:26:01.385Z,7.30
2019-03-12T09:27:01.302Z,7.29
2019-03-12T09:28:01.299Z,7.37
2019-03-12T09:29:01.322Z,7.57
2019-03-12T09:30:01.388Z,7.91
2019-03-12T09:31:01.255Z,8.40
2019-03-12T09:32:01.300Z,8.58
2019-03-12T09:33:01.243Z,9.67
2019-03-12T09:34:01.224Z,10.66
2019-03-12T09:35:01.222Z,10.57
2019-03-12T09:36:01.202Z,10.32
2019-03-12T09:37:02.855Z,10.68
2019-03-12T09:38:01.181Z,10.29
2019-03-12T09:39:01.178Z,10.32
2019-03-12T09:40:01.183Z,10.13
2019-03-12T09:41:01.149Z,10.09
2019-03-12T09:42:01.137Z,9.88
2019-03-12T09:43:01.125Z,9.63
2019-03-12T09:44:01.126Z,9.50
2019-03-12T09:45:01.119Z,9.45
2019-03-12T09:46:01.120Z,9.52
2019-03-12T09:47:01.081Z,9.55
2019-03-12T09:48:01.072Z,9.58
2019-03-12T09:49:01.066Z,9.48
2019-03-12T09:50:01.077Z,9.45
2019-03-12T09:51:01.054Z,9.34
2019-03-12T09:52:01.046Z,9.23
2019-03-12T09:53:01.015Z,9.32
2019-03-12T09:54:01.004Z,9.42
2019-03-12T09:55:01.009Z,9.92
2019-03-12T09:56:00.988Z,10.34
2019-03-12T09:57:00.973Z,10.65
2019-03-12T09:58:00.958Z,11.11
2019-03-12T09:59:00.948Z,11.66
2019-03-12T10:00:00.973Z,12.03
2019-03-12T10:01:00.935Z,12.21
2019-03-12T10:02:00.918Z,12.44
2019-03-12T10:03:00.910Z,12.19
2019-03-12T10:04:00.893Z,11.74
2019-03-12T10:05:00.892Z,11.38
2019-03-12T10:06:00.872Z,11.51
2019-03-12T10:07:00.864Z,11.79
2019-03-12T10:08:00.853Z,11.82
2019-03-12T10:09:00.859Z,11.93
2019-03-12T10:10:00.835Z,11.69
2019-03-12T10:11:00.819Z,11.57
2019-03-12T10:12:00.807Z,11.60
2019-03-12T10:13:00.811Z,11.44
2019-03-12T10:14:01.395Z,11.28
2019-03-12T10:15:00.783Z,11.19
2019-03-12T10:16:00.762Z,11.11
2019-03-12T10:17:00.760Z,10.84
2019-03-12T10:18:02.623Z,10.72
2019-03-12T10:19:00.728Z,10.72
2019-03-12T10:20:00.728Z,10.63
2019-03-12T10:21:00.708Z,10.47
2019-03-12T10:22:00.696Z,10.44
2019-03-12T10:23:00.686Z,10.60
2019-03-12T10:24:00.674Z,10.60
2019-03-12T10:25:00.681Z,10.51
2019-03-12T10:26:00.655Z,10.47
2019-03-12T10:27:00.643Z,10.43
2019-03-12T10:28:00.630Z,10.47
2019-03-12T10:29:00.622Z,11.26
2019-03-12T10:30:00.617Z,12.16
2019-03-12T10:31:00.598Z,12.05
2019-03-12T10:32:00.590Z,12.13
2019-03-12T10:33:00.583Z,12.46
2019-03-12T10:34:00.571Z,12.89
2019-03-12T10:35:00.566Z,13.22
2019-03-12T10:36:00.669Z,13.53
2019-03-12T10:37:11.283Z,13.99
2019-03-12T10:38:01.521Z,14.35
2019-03-12T10:39:00.509Z,14.39
2019-03-12T10:40:00.543Z,13.83
2019-03-12T10:41:00.512Z,13.38
2019-03-12T10:42:00.474Z,13.14
2019-03-12T10:43:00.466Z,13.03
2019-03-12T10:44:00.469Z,13.28
2019-03-12T10:45:00.484Z,12.96
2019-03-12T10:46:00.436Z,12.88
2019-03-12T10:47:00.429Z,13.07
2019-03-12T10:48:00.415Z,13.13
2019-03-12T10:49:00.399Z,13.01
2019-03-12T10:50:00.387Z,12.99
2019-03-12T10:51:00.393Z,12.85
2019-03-12T10:52:00.377Z,12.54
2019-03-12T10:53:00.354Z,12.33
2019-03-12T10:54:00.346Z,12.25
2019-03-12T10:55:12.515Z,12.25
2019-03-12T10:56:01.328Z,12.77
2019-03-12T10:57:00.311Z,12.92
2019-03-12T10:58:00.336Z,12.76
2019-03-12T10:59:00.291Z,12.92
2019-03-12T11:00:00.414Z,13.22
2019-03-12T11:01:00.334Z,13.59
2019-03-12T11:02:00.279Z,13.51
2019-03-12T11:03:00.252Z,13.55
2019-03-12T11:04:00.236Z,13.35
2019-03-12T11:05:00.456Z,13.16
2019-03-12T11:06:00.222Z,12.99
2019-03-12T11:07:00.202Z,12.87
2019-03-12T11:08:00.189Z,12.98
2019-03-12T11:09:00.182Z,13.22
2019-03-12T11:10:00.475Z,13.39
2019-03-12T11:11:00.169Z,13.63
2019-03-12T11:12:00.153Z,13.91
2019-03-12T11:13:00.136Z,13.55
2019-03-12T11:14:00.126Z,13.46
2019-03-12T11:15:00.119Z,13.21
2019-03-12T11:16:00.111Z,13.10
2019-03-12T11:17:00.090Z,13.03
2019-03-12T11:18:00.080Z,13.01
2019-03-12T11:19:00.079Z,13.25
2019-03-12T11:20:00.068Z,13.44
2019-03-12T11:21:00.063Z,13.61
2019-03-12T11:22:00.038Z,13.91
2019-03-12T11:23:00.027Z,13.96
2019-03-12T11:24:00.013Z,13.98
2019-03-12T11:25:00.002Z,13.91
2019-03-12T11:26:00.010Z,13.65
2019-03-12T11:26:59.996Z,13.55
2019-03-12T11:27:59.974Z,13.50
2019-03-12T11:28:59.958Z,13.32
2019-03-12T11:29:59.952Z,13.13
2019-03-12T11:30:59.949Z,13.04
2019-03-12T11:31:59.925Z,13.39
2019-03-12T11:32:59.923Z,13.71
2019-03-12T11:33:59.906Z,13.79
2019-03-12T11:34:59.897Z,13.94
2019-03-12T11:35:59.926Z,13.84
2019-03-12T11:36:59.899Z,13.76
2019-03-12T11:37:59.874Z,13.99
2019-03-12T11:38:59.912Z,14.13
2019-03-12T11:39:59.841Z,14.26
2019-03-12T11:40:59.861Z,14.27
2019-03-12T11:41:59.833Z,14.35
2019-03-12T11:42:59.817Z,14.39
2019-03-12T11:43:59.804Z,14.44
2019-03-12T11:44:59.787Z,14.41
2019-03-12T11:45:59.838Z,14.46
2019-03-12T11:46:59.818Z,14.21
2019-03-12T11:47:59.781Z,13.91
2019-03-12T11:48:59.766Z,13.84
2019-03-12T11:49:59.729Z,13.79
2019-03-12T11:50:59.716Z,13.94
2019-03-12T11:51:59.757Z,13.99
2019-03-12T11:53:00.787Z,14.20
2019-03-12T11:53:59.764Z,14.35
2019-03-12T11:54:59.680Z,14.23
2019-03-12T11:55:59.662Z,14.29
2019-03-12T11:56:59.674Z,14.52
2019-03-12T11:57:59.679Z,14.64
2019-03-12T11:58:59.635Z,14.78
2019-03-12T11:59:59.630Z,14.67
2019-03-12T12:00:59.680Z,14.63
2019-03-12T12:01:59.605Z,14.75
2019-03-12T12:03:00.663Z,14.71
2019-03-12T12:03:59.581Z,14.78
2019-03-12T12:04:59.564Z,14.60
2019-03-12T12:05:59.885Z,14.48
2019-03-12T12:06:59.550Z,14.27
2019-03-12T12:07:59.555Z,14.04
2019-03-12T12:08:59.525Z,13.86
2019-03-12T12:09:59.541Z,14.06
2019-03-12T12:10:59.502Z,13.98
2019-03-12T12:11:59.494Z,13.90
2019-03-12T12:12:59.482Z,14.02
2019-03-12T12:13:59.474Z,13.93
2019-03-12T12:14:59.459Z,13.84
2019-03-12T12:15:59.449Z,13.69
2019-03-12T12:16:59.442Z,13.55
2019-03-12T12:17:59.423Z,13.68
2019-03-12T12:18:59.412Z,13.73
2019-03-12T12:19:59.399Z,13.57
2019-03-12T12:20:59.395Z,13.50
2019-03-12T12:21:59.401Z,13.36
2019-03-12T12:22:59.365Z,13.39
2019-03-12T12:23:59.354Z,13.39
2019-03-12T12:24:59.343Z,13.39
2019-03-12T12:25:59.336Z,13.48
2019-03-12T12:26:59.341Z,13.38
2019-03-12T12:27:59.317Z,13.41
2019-03-12T12:29:01.823Z,13.31
2019-03-12T12:29:59.792Z,13.27
2019-03-12T12:31:01.875Z,13.24
2019-03-12T12:32:00.397Z,13.27
2019-03-12T12:32:59.270Z,13.28
2019-03-12T12:33:59.247Z,13.03
2019-03-12T12:34:59.233Z,13.09
2019-03-12T12:36:01.057Z,13.03
2019-03-12T12:37:04.486Z,13.16
2019-03-12T12:38:03.096Z,13.22
2019-03-12T12:39:00.090Z,13.10
2019-03-12T12:40:00.388Z,13.17
2019-03-12T12:41:03.389Z,13.10
2019-03-12T12:42:03.589Z,13.13
2019-03-12T12:43:03.838Z,13.14
2019-03-12T12:44:01.070Z,13.09
2019-03-12T12:45:15.892Z,13.01
2019-03-12T12:46:00.024Z,13.16
2019-03-12T12:47:03.158Z,13.17
2019-03-12T12:48:02.848Z,13.09
2019-03-12T12:49:05.028Z,12.96
2019-03-12T12:50:04.110Z,13.01
2019-03-12T12:51:15.950Z,13.03
2019-03-12T12:52:03.168Z,13.07
2019-03-12T12:53:03.656Z,13.12
2019-03-12T12:54:00.825Z,13.19
2019-03-12T12:55:06.170Z,13.32
2019-03-12T12:56:02.863Z,13.32
2019-03-12T12:56:59.058Z,13.25
2019-03-12T12:58:01.300Z,13.32
2019-03-12T12:58:59.890Z,13.19
2019-03-12T12:59:59.276Z,13.21
2019-03-12T13:01:01.070Z,13.43
2019-03-12T13:02:03.914Z,13.94
2019-03-12T13:02:59.089Z,14.21
2019-03-12T13:03:59.811Z,14.23
2019-03-12T13:04:59.141Z,14.20
2019-03-12T13:06:00.993Z,14.01
2019-03-12T13:07:02.431Z,14.04
2019-03-12T13:08:00.635Z,13.99
2019-03-12T13:09:02.917Z,13.98
2019-03-12T13:09:59.955Z,13.91
2019-03-12T13:10:59.911Z,13.73